createdAt,value
2022-07-27T00:03:07.499Z,1.60
2022-07-27T00:06:29.315Z,1.48
2022-07-27T00:09:51.042Z,1.50
2022-07-27T00:13:12.797Z,1.67
2022-07-27T00:16:34.714Z,1.63
2022-07-27T00:19:56.545Z,1.50
2022-07-27T00:23:18.565Z,1.60
2022-07-27T00:26:40.248Z,1.50
2022-07-27T00:30:02.028Z,1.50
2022-07-27T00:33:23.810Z,1.65
2022-07-27T00:36:45.638Z,1.73
2022-07-27T00:40:10.513Z,1.80
2022-07-27T00:43:32.483Z,1.40
2022-07-27T00:46:55.261Z,1.50
2022-07-27T00:50:17.142Z,1.48
2022-07-27T00:53:39.281Z,1.40
2022-07-27T00:57:01.419Z,1.45
2022-07-27T01:00:24.273Z,1.80
2022-07-27T01:03:46.614Z,1.67
2022-07-27T01:07:11.695Z,1.85
2022-07-27T01:10:34.002Z,2.00
2022-07-27T01:13:55.895Z,1.33
2022-07-27T01:17:17.809Z,1.50
2022-07-27T01:20:42.795Z,1.60
2022-07-27T01:24:04.717Z,1.95
2022-07-27T01:27:26.441Z,1.70
2022-07-27T01:30:50.027Z,1.45
2022-07-27T01:34:11.967Z,1.20
2022-07-27T01:37:33.710Z,1.63
2022-07-27T01:40:56.002Z,1.67
2022-07-27T01:44:17.811Z,1.60
2022-07-27T01:47:39.641Z,1.85
2022-07-27T01:51:01.388Z,1.50
2022-07-27T01:54:23.177Z,1.50
2022-07-27T01:57:44.913Z,1.42
2022-07-27T02:01:07.535Z,1.40
2022-07-27T02:04:29.265Z,1.60
2022-07-27T02:07:51.142Z,1.77
2022-07-27T02:11:31.600Z,1.63
2022-07-27T02:14:53.387Z,1.63
2022-07-27T02:18:33.098Z,1.50
2022-07-27T02:21:58.173Z,1.63
2022-07-27T02:25:20.547Z,1.40
2022-07-27T02:28:42.395Z,1.70
2022-07-27T02:32:04.286Z,1.73
2022-07-27T02:35:26.425Z,1.90
2022-07-27T02:38:48.200Z,1.90
2022-07-27T02:42:10.161Z,1.48
2022-07-27T02:45:31.895Z,1.65
2022-07-27T02:48:53.747Z,1.80
2022-07-27T02:52:15.505Z,2.38
2022-07-27T02:55:37.223Z,1.80
2022-07-27T02:58:58.952Z,1.90
2022-07-27T03:02:21.197Z,2.00
2022-07-27T03:05:43.148Z,2.35
2022-07-27T03:09:05.637Z,3.13
2022-07-27T03:12:27.533Z,2.80
2022-07-27T03:15:49.332Z,3.13
2022-07-27T03:19:12.319Z,4.43
2022-07-27T03:22:34.415Z,3.42
2022-07-27T03:25:56.280Z,4.32
2022-07-27T03:29:17.918Z,4.30
2022-07-27T03:32:39.751Z,4.30
2022-07-27T03:36:01.733Z,5.20
2022-07-27T03:39:23.524Z,5.68
2022-07-27T03:42:45.624Z,6.25
2022-07-27T03:46:07.655Z,5.97
2022-07-27T03:49:29.642Z,5.30
2022-07-27T03:52:51.973Z,5.45
2022-07-27T03:56:13.794Z,5.57
2022-07-27T03:59:35.697Z,5.43
2022-07-27T04:02:57.491Z,4.75
2022-07-27T04:06:19.469Z,5.45
2022-07-27T04:09:41.588Z,5.70
2022-07-27T04:13:06.767Z,4.97
2022-07-27T04:16:35.883Z,5.45
2022-07-27T04:19:58.297Z,5.20
2022-07-27T04:23:19.996Z,5.95
2022-07-27T04:26:41.746Z,5.15
2022-07-27T04:30:09.220Z,5.82
2022-07-27T04:33:31.961Z,6.38
2022-07-27T04:36:53.749Z,5.90
2022-07-27T04:40:15.903Z,5.53
2022-07-27T04:43:37.603Z,5.18
2022-07-27T04:46:59.341Z,5.40
2022-07-27T04:50:21.279Z,5.47
2022-07-27T04:53:53.512Z,5.30
2022-07-27T04:57:21.151Z,5.00
2022-07-27T05:00:46.273Z,5.07
2022-07-27T05:04:08.170Z,5.05
2022-07-27T05:07:29.924Z,5.35
2022-07-27T05:10:51.782Z,5.45
2022-07-27T05:14:13.560Z,4.70
2022-07-27T05:17:36.351Z,4.32
2022-07-27T05:20:58.406Z,4.35
2022-07-27T05:24:20.286Z,4.18
2022-07-27T05:27:54.716Z,3.83
2022-07-27T05:31:18.500Z,3.63
2022-07-27T05:34:41.928Z,3.30
2022-07-27T05:38:04.390Z,3.03
2022-07-27T05:41:26.870Z,3.30
2022-07-27T05:44:52.665Z,2.78
2022-07-27T05:48:14.380Z,3.00
2022-07-27T05:51:38.336Z,2.70
2022-07-27T05:55:00.412Z,2.25
2022-07-27T05:58:23.150Z,2.47
2022-07-27T06:01:46.593Z,2.10
2022-07-27T06:05:14.879Z,2.65
2022-07-27T06:08:37.643Z,1.83
2022-07-27T06:11:59.499Z,2.05
2022-07-27T06:15:21.299Z,2.60
2022-07-27T06:18:43.115Z,2.67
2022-07-27T06:22:05.655Z,2.00
2022-07-27T06:25:33.972Z,2.10
2022-07-27T06:28:58.634Z,1.92
2022-07-27T06:32:20.439Z,2.65
2022-07-27T06:35:42.460Z,2.90
2022-07-27T06:39:05.964Z,2.03
2022-07-27T06:42:28.246Z,2.05
2022-07-27T06:45:50.444Z,2.33
2022-07-27T06:49:12.609Z,3.13
2022-07-27T06:52:35.124Z,2.63
2022-07-27T06:55:59.351Z,2.22
2022-07-27T06:59:21.321Z,2.80
2022-07-27T07:02:57.495Z,2.55
2022-07-27T07:06:19.301Z,2.83
2022-07-27T07:09:41.199Z,2.58
2022-07-27T07:13:05.024Z,2.20
2022-07-27T07:16:27.027Z,2.40
2022-07-27T07:19:48.857Z,3.25
2022-07-27T07:23:11.875Z,2.00
2022-07-27T07:26:33.787Z,1.63
2022-07-27T07:29:55.586Z,1.75
2022-07-27T07:33:17.461Z,1.67
2022-07-27T07:36:39.402Z,1.60
2022-07-27T07:40:25.351Z,1.85
2022-07-27T07:43:43.453Z,1.80
2022-07-27T07:47:06.074Z,3.90
2022-07-27T07:50:27.927Z,2.15
2022-07-27T07:53:49.759Z,2.47
2022-07-27T07:57:11.537Z,2.22
2022-07-27T08:00:33.486Z,2.70
2022-07-27T08:03:55.209Z,2.10
2022-07-27T08:07:17.644Z,2.83
2022-07-27T08:10:39.845Z,3.33
2022-07-27T08:14:03.215Z,2.40
2022-07-27T08:17:25.031Z,1.70
2022-07-27T08:20:46.887Z,1.58
2022-07-27T08:24:08.822Z,1.40
2022-07-27T08:27:30.711Z,1.55
2022-07-27T08:31:02.558Z,1.80
2022-07-27T08:34:37.746Z,1.38
2022-07-27T08:38:01.064Z,2.75
2022-07-27T08:41:26.704Z,1.92
2022-07-27T08:44:48.604Z,2.10
2022-07-27T08:48:13.554Z,1.50
2022-07-27T08:51:35.600Z,1.45
2022-07-27T08:54:57.336Z,0.95
2022-07-27T08:58:19.567Z,1.08
2022-07-27T09:01:41.415Z,1.30
2022-07-27T09:05:04.827Z,1.20
2022-07-27T09:08:30.824Z,1.20
2022-07-27T09:12:26.618Z,1.20
2022-07-27T09:16:16.120Z,1.38
2022-07-27T09:19:55.183Z,1.50
2022-07-27T09:23:26.624Z,1.20
2022-07-27T09:26:49.391Z,1.08
2022-07-27T09:30:15.794Z,1.40
2022-07-27T09:33:49.680Z,1.10
2022-07-27T09:37:12.244Z,1.00
2022-07-27T09:40:36.203Z,0.93
2022-07-27T09:47:40.113Z,1.10
2022-07-27T09:51:43.303Z,1.00
2022-07-27T09:54:47.592Z,0.63
2022-07-27T09:58:15.543Z,1.00
2022-07-27T10:01:46.704Z,1.10
2022-07-27T10:05:10.679Z,0.70
2022-07-27T10:08:32.972Z,0.60
2022-07-27T10:11:54.782Z,1.20
2022-07-27T10:15:16.746Z,0.90
2022-07-27T10:18:56.817Z,1.15
2022-07-27T10:22:50.418Z,0.82
2022-07-27T10:26:29.254Z,0.77
2022-07-27T10:29:51.821Z,1.08
2022-07-27T10:33:15.220Z,1.05
2022-07-27T10:36:43.695Z,1.30
2022-07-27T10:40:26.970Z,1.65
2022-07-27T10:43:50.471Z,1.00
2022-07-27T10:47:28.828Z,1.45
2022-07-27T10:50:50.581Z,1.00
2022-07-27T10:54:27.777Z,0.68
2022-07-27T10:57:51.535Z,0.60
2022-07-27T11:01:14.690Z,0.70
2022-07-27T11:04:46.432Z,0.68
2022-07-27T11:11:50.179Z,0.90
2022-07-27T11:15:11.888Z,1.10
2022-07-27T11:18:39.119Z,0.73
2022-07-27T11:22:04.485Z,1.00
2022-07-27T11:25:28.085Z,0.70
2022-07-27T11:28:50.511Z,3.55
2022-07-27T11:32:18.020Z,1.27
2022-07-27T11:35:51.176Z,1.10
2022-07-27T11:39:28.552Z,1.50
2022-07-27T11:42:58.049Z,1.00
2022-07-27T11:46:20.797Z,1.00
2022-07-27T11:49:42.785Z,1.30
2022-07-27T11:53:06.423Z,1.10
2022-07-27T11:56:33.583Z,1.00
2022-07-27T11:59:55.265Z,0.88
2022-07-27T12:03:21.403Z,1.15
2022-07-27T12:06:46.287Z,0.90
2022-07-27T12:10:08.631Z,0.80
2022-07-27T12:13:35.355Z,0.70
2022-07-27T12:17:31.194Z,0.85
2022-07-27T12:20:53.392Z,0.80
2022-07-27T12:24:15.253Z,0.73
2022-07-27T12:27:38.097Z,0.77
2022-07-27T12:31:04.278Z,0.90
2022-07-27T12:34:32.899Z,0.80
2022-07-27T12:38:03.676Z,0.70
2022-07-27T12:41:32.436Z,0.77
2022-07-27T12:44:57.662Z,0.70
2022-07-27T12:48:26.825Z,0.75
2022-07-27T12:51:48.550Z,1.13
2022-07-27T12:55:15.492Z,0.90
2022-07-27T12:58:37.950Z,0.98
2022-07-27T13:01:59.983Z,0.70
2022-07-27T13:05:21.935Z,0.82
2022-07-27T13:08:43.814Z,1.10
2022-07-27T13:12:07.137Z,0.60
2022-07-27T13:15:29.125Z,0.80
2022-07-27T13:18:51.043Z,1.10
2022-07-27T13:22:12.935Z,0.80
2022-07-27T13:25:37.252Z,0.80
2022-07-27T13:29:03.757Z,1.00
2022-07-27T13:32:26.569Z,0.90
2022-07-27T13:35:53.112Z,1.20
2022-07-27T13:39:22.518Z,0.80
2022-07-27T13:42:44.572Z,0.47
2022-07-27T13:46:08.381Z,0.65
2022-07-27T13:49:30.260Z,0.80
2022-07-27T13:52:52.043Z,0.95
2022-07-27T13:56:13.907Z,0.57
2022-07-27T13:59:35.651Z,0.68
2022-07-27T14:02:57.493Z,0.82
2022-07-27T14:06:20.402Z,0.90
2022-07-27T14:10:02.826Z,0.60
2022-07-27T14:13:26.373Z,0.55
2022-07-27T14:16:48.189Z,0.60
2022-07-27T14:20:10.812Z,0.40
2022-07-27T14:23:34.360Z,0.50
2022-07-27T14:26:57.248Z,0.60
2022-07-27T14:30:21.117Z,0.50
2022-07-27T14:33:43.099Z,0.40
2022-07-27T14:37:05.031Z,0.38
2022-07-27T14:40:27.158Z,0.55
2022-07-27T14:43:48.942Z,0.60
2022-07-27T14:47:10.703Z,0.40
2022-07-27T14:50:33.027Z,0.60
2022-07-27T14:53:54.769Z,0.40
2022-07-27T14:57:16.776Z,0.70
2022-07-27T15:00:39.704Z,0.35
2022-07-27T15:04:01.709Z,0.50
2022-07-27T15:07:23.529Z,0.50
2022-07-27T15:10:46.489Z,0.45
2022-07-27T15:14:08.266Z,0.60
2022-07-27T15:17:29.969Z,0.60
2022-07-27T15:20:51.777Z,0.40
2022-07-27T15:24:14.044Z,0.60
2022-07-27T15:27:35.916Z,0.50
2022-07-27T15:30:57.753Z,0.65
2022-07-27T15:34:19.619Z,0.50
2022-07-27T15:37:41.435Z,0.73
2022-07-27T15:41:16.286Z,0.82
2022-07-27T15:44:38.118Z,0.63
2022-07-27T15:47:59.811Z,0.60
2022-07-27T15:51:22.238Z,0.80
2022-07-27T15:54:45.733Z,1.55
2022-07-27T15:58:08.014Z,0.85
2022-07-27T16:01:34.275Z,0.80
2022-07-27T16:04:57.669Z,0.82
2022-07-27T16:08:20.135Z,0.80
2022-07-27T16:11:41.955Z,0.93
2022-07-27T16:15:04.223Z,0.80
2022-07-27T16:18:27.335Z,1.02
2022-07-27T16:21:53.542Z,0.80
2022-07-27T16:25:17.282Z,0.80
2022-07-27T16:28:42.166Z,1.00
2022-07-27T16:32:04.453Z,0.80
2022-07-27T16:35:27.531Z,0.80
2022-07-27T16:38:51.248Z,0.90
2022-07-27T16:42:13.023Z,0.70
2022-07-27T16:45:34.928Z,0.68
2022-07-27T16:48:56.749Z,0.60
2022-07-27T16:52:18.588Z,0.75
2022-07-27T16:55:40.419Z,0.70
2022-07-27T16:59:02.189Z,0.80
2022-07-27T17:02:24.134Z,1.13
2022-07-27T17:05:45.968Z,0.75
2022-07-27T17:09:07.739Z,0.77
2022-07-27T17:12:29.548Z,0.93
2022-07-27T17:15:53.330Z,0.90
2022-07-27T17:19:16.376Z,0.77
2022-07-27T17:22:38.294Z,1.00
2022-07-27T17:26:00.095Z,0.85
2022-07-27T17:29:21.794Z,1.30
2022-07-27T17:32:43.649Z,1.23
2022-07-27T17:36:09.531Z,0.70
2022-07-27T17:39:36.041Z,1.00
2022-07-27T17:42:59.485Z,1.00
2022-07-27T17:46:22.722Z,0.88
2022-07-27T17:49:45.739Z,0.90
2022-07-27T17:53:07.732Z,0.80
2022-07-27T17:56:32.459Z,2.70
2022-07-27T17:59:56.271Z,2.55
2022-07-27T18:03:18.113Z,2.58
2022-07-27T18:06:39.793Z,3.10
2022-07-27T18:10:01.689Z,1.10
2022-07-27T18:13:23.461Z,1.00
2022-07-27T18:17:00.763Z,0.90
2022-07-27T18:20:22.564Z,0.90
2022-07-27T18:23:44.363Z,0.90
2022-07-27T18:27:06.173Z,0.88
2022-07-27T18:30:29.307Z,1.05
2022-07-27T18:33:52.500Z,1.00
2022-07-27T18:37:14.246Z,1.02
2022-07-27T18:40:40.633Z,1.38
2022-07-27T18:44:03.088Z,1.00
2022-07-27T18:47:24.956Z,1.48
2022-07-27T18:50:46.772Z,1.20
2022-07-27T18:54:08.607Z,4.45
2022-07-27T18:57:30.430Z,4.35
2022-07-27T19:00:52.277Z,2.42
2022-07-27T19:04:16.836Z,4.43
2022-07-27T19:07:40.372Z,2.20
2022-07-27T19:11:02.446Z,2.08
2022-07-27T19:14:24.226Z,1.80
2022-07-27T19:17:47.215Z,2.58
2022-07-27T19:21:09.154Z,2.30
2022-07-27T19:24:31.051Z,2.10
2022-07-27T19:27:52.875Z,1.90
2022-07-27T19:31:22.198Z,2.08
2022-07-27T19:34:44.803Z,1.90
2022-07-27T19:38:08.324Z,2.00
2022-07-27T19:41:31.641Z,2.45
2022-07-27T19:44:54.015Z,2.17
2022-07-27T19:48:15.780Z,2.30
2022-07-27T19:51:37.865Z,1.92
2022-07-27T19:54:59.945Z,1.98
2022-07-27T19:58:22.745Z,2.00
2022-07-27T20:01:44.539Z,2.40
2022-07-27T20:05:06.850Z,2.20
2022-07-27T20:08:29.802Z,2.30
2022-07-27T20:11:54.490Z,2.10
2022-07-27T20:15:20.153Z,2.20
2022-07-27T20:18:44.271Z,2.35
2022-07-27T20:22:06.134Z,2.40
2022-07-27T20:25:28.011Z,2.75
2022-07-27T20:28:50.279Z,2.80
2022-07-27T20:32:12.842Z,2.70
2022-07-27T20:35:37.663Z,2.78
2022-07-27T20:38:59.792Z,2.63
2022-07-27T20:42:21.633Z,2.90
2022-07-27T20:45:43.479Z,3.08
2022-07-27T20:49:05.557Z,3.30
2022-07-27T20:52:27.362Z,2.65
2022-07-27T20:55:49.178Z,2.97
2022-07-27T20:59:17.169Z,2.83
2022-07-27T21:02:39.404Z,2.63
2022-07-27T21:06:01.813Z,2.55
2022-07-27T21:09:23.798Z,2.40
2022-07-27T21:12:46.895Z,3.03
2022-07-27T21:16:08.740Z,3.10
2022-07-27T21:19:30.575Z,2.80
2022-07-27T21:23:12.713Z,2.63
2022-07-27T21:26:34.496Z,3.25
2022-07-27T21:29:59.034Z,3.10
2022-07-27T21:33:20.837Z,2.88
2022-07-27T21:36:43.754Z,2.75
2022-07-27T21:40:06.056Z,2.50
2022-07-27T21:43:27.778Z,2.78
2022-07-27T21:46:52.700Z,2.45
2022-07-27T21:50:14.407Z,2.90
2022-07-27T21:53:36.231Z,2.40
2022-07-27T21:56:57.973Z,2.40
2022-07-27T22:00:24.448Z,2.70
2022-07-27T22:03:46.680Z,2.40
2022-07-27T22:07:08.629Z,2.85
2022-07-27T22:10:40.873Z,2.38
2022-07-27T22:14:02.679Z,2.25
2022-07-27T22:17:24.468Z,2.47
2022-07-27T22:20:47.114Z,2.50
2022-07-27T22:24:09.061Z,2.65
2022-07-27T22:27:30.920Z,2.38
2022-07-27T22:31:00.106Z,2.47
2022-07-27T22:34:34.715Z,2.47
2022-07-27T22:37:56.853Z,2.55
2022-07-27T22:41:18.701Z,2.58
2022-07-27T22:44:42.136Z,2.55
2022-07-27T22:48:04.238Z,2.17
2022-07-27T22:51:26.344Z,2.10
2022-07-27T22:55:09.451Z,2.40
2022-07-27T22:58:31.300Z,1.92
2022-07-27T23:01:53.241Z,1.95
2022-07-27T23:05:15.497Z,2.10
2022-07-27T23:08:37.332Z,2.10
2022-07-27T23:11:59.185Z,1.88
2022-07-27T23:15:20.978Z,2.13
2022-07-27T23:18:42.782Z,1.88
2022-07-27T23:22:04.575Z,1.95
2022-07-27T23:25:36.181Z,1.80
2022-07-27T23:28:58.434Z,1.70
2022-07-27T23:32:20.164Z,1.80
2022-07-27T23:35:42.013Z,1.50
2022-07-27T23:39:03.820Z,1.67
2022-07-27T23:42:25.741Z,1.70
2022-07-27T23:45:49.274Z,1.90
2022-07-27T23:49:11.461Z,2.20
2022-07-27T23:52:33.786Z,1.73
2022-07-27T23:55:55.974Z,1.80
2022-07-27T23:59:17.764Z,1.75
